Time;durP1;ratioP1;P1;durP2;ratioP2;P2;SDS_P1;SDS_P2;PMS_P1;PMS_P2;Temp;Humidity;BMP_temperature;BMP_pressure;BME280_temperature;BME280_humidity;BME280_pressure;Samples;Min_cycle;Max_cycle;Signal;HPM_P1;HPM_P2
2023/09/02 00:01:47;;;;;;;12.38;7.10;;;;;;;22.36;64.98;100344.00;5062221;28;20037;-29
2023/09/02 00:04:13;;;;;;;14.27;8.07;;;;;;;22.44;64.64;100354.22;5061728;28;20031;-27
2023/09/02 00:06:38;;;;;;;17.98;8.32;;;;;;;22.25;64.96;100354.19;5084498;28;20028;-29
2023/09/02 00:09:04;;;;;;;16.77;9.15;;;;;;;22.22;65.35;100362.88;5109968;28;20023;-29
2023/09/02 00:11:29;;;;;;;11.68;6.75;;;;;;;22.31;65.92;100370.41;5109593;28;20020;-30
2023/09/02 00:13:55;;;;;;;12.13;7.22;;;;;;;22.17;66.02;100364.81;5109462;28;20034;-30
2023/09/02 00:16:20;;;;;;;10.85;6.30;;;;;;;22.13;66.18;100374.66;5109419;28;20039;-28
2023/09/02 00:18:46;;;;;;;8.85;5.70;;;;;;;22.34;66.75;100365.22;5109542;28;20020;-29
2023/09/02 00:21:12;;;;;;;14.65;6.78;;;;;;;22.29;63.06;100362.53;5109594;28;20023;-31
2023/09/02 00:23:41;;;;;;;10.18;6.03;;;;;;;22.31;62.25;100367.69;5109084;28;20019;-30
2023/09/02 00:26:06;;;;;;;10.80;6.40;;;;;;;22.44;65.37;100365.09;5101438;28;20024;-34
2023/09/02 00:28:32;;;;;;;9.25;6.13;;;;;;;22.54;63.34;100363.34;5088643;28;20092;-29
2023/09/02 00:30:57;;;;;;;10.75;6.20;;;;;;;22.59;63.38;100366.00;5088847;28;20053;-29
2023/09/02 00:33:23;;;;;;;10.82;6.22;;;;;;;22.51;63.35;100361.19;5088519;28;20081;-30
2023/09/02 00:35:49;;;;;;;10.73;6.10;;;;;;;22.58;64.08;100362.47;5088710;28;20028;-29
2023/09/02 00:38:15;;;;;;;9.63;5.50;;;;;;;22.76;62.43;100355.44;5088552;28;20485;-30
2023/09/02 00:40:47;;;;;;;9.50;5.28;;;;;;;22.75;61.99;100355.72;5088818;28;20036;-32
2023/09/02 00:43:14;;;;;;;7.53;4.85;;;;;;;22.94;61.53;100361.16;5088846;28;20024;-31
2023/09/02 00:45:40;;;;;;;6.28;4.50;;;;;;;23.03;62.25;100368.41;5088235;28;20173;-30
2023/09/02 00:48:05;;;;;;;9.57;4.90;;;;;;;23.00;60.28;100365.41;5095240;28;20420;-30
2023/09/02 00:50:35;;;;;;;10.25;4.55;;;;;;;22.81;62.87;100352.63;5095274;28;20046;-30
2023/09/02 00:53:00;;;;;;;6.40;4.40;;;;;;;22.94;61.95;100358.44;5096979;28;20528;-30
2023/09/02 00:55:28;;;;;;;7.05;4.32;;;;;;;22.97;62.14;100360.59;5088083;28;20016;-31
2023/09/02 00:57:56;;;;;;;;;;;;;;;22.83;61.00;100361.31;5089024;28;20066;-29
2023/09/02 01:00:22;;;;;;;9.00;4.53;;;;;;;22.68;59.87;100353.38;5087858;28;20010;-30
2023/09/02 01:02:47;;;;;;;8.55;3.88;;;;;;;22.77;62.50;100351.59;5088477;28;20149;-31
2023/09/02 01:05:14;;;;;;;4.85;3.80;;;;;;;22.93;61.67;100354.91;5088020;28;20765;-30
2023/09/02 01:07:42;;;;;;;6.22;3.55;;;;;;;22.97;61.14;100339.63;5088198;28;20081;-30
2023/09/02 01:10:27;;;;;;;5.45;4.10;;;;;;;22.73;61.17;100338.91;5088336;28;20032;-31
2023/09/02 01:12:53;;;;;;;7.53;4.10;;;;;;;22.64;60.31;100360.50;5088042;28;20051;-30
2023/09/02 01:15:18;;;;;;;5.70;3.88;;;;;;;22.59;61.85;100350.47;5088195;28;20534;-29
2023/09/02 01:17:44;;;;;;;6.22;4.43;;;;;;;22.71;62.30;100360.94;5087075;28;20024;-29
2023/09/02 01:20:27;;;;;;;6.68;4.10;;;;;;;22.47;60.96;100363.69;5087869;28;20036;-33
2023/09/02 01:23:30;;;;;;;7.15;3.63;;;;;;;22.40;62.02;100358.59;5087999;28;20020;-31
2023/09/02 01:25:58;;;;;;;6.38;3.97;;;;;;;22.44;59.95;100359.66;5099233;28;20126;-33
2023/09/02 01:28:31;;;;;;;6.53;3.65;;;;;;;22.27;62.02;100354.69;5087598;28;20028;-33
2023/09/02 01:31:00;;;;;;;5.15;4.03;;;;;;;21.77;63.17;100358.75;5087784;28;20063;-31
2023/09/02 01:33:27;;;;;;;6.65;4.03;;;;;;;22.06;63.64;100364.94;5087573;28;20035;-31
2023/09/02 01:35:54;;;;;;;5.47;3.85;;;;;;;21.99;64.98;100345.47;5087663;28;20066;-32
2023/09/02 01:38:24;;;;;;;5.78;3.88;;;;;;;22.39;64.52;100357.00;5087412;28;20093;-32
2023/09/02 01:40:53;;;;;;;5.35;3.90;;;;;;;22.05;61.76;100341.59;5087781;28;20032;-33
2023/09/02 01:43:20;;;;;;;7.75;4.35;;;;;;;22.02;62.70;100358.47;5087311;28;20032;-32
2023/09/02 01:45:46;;;;;;;8.10;4.30;;;;;;;22.05;63.07;100357.09;5090127;28;20035;-33
2023/09/02 01:48:15;;;;;;;7.90;4.07;;;;;;;21.66;63.59;100345.28;5099046;28;20399;-29
2023/09/02 01:50:42;;;;;;;8.88;4.60;;;;;;;21.73;63.52;100354.97;5095948;28;20044;-30
2023/09/02 01:53:08;;;;;;;7.20;4.63;;;;;;;21.63;65.63;100351.25;5087322;28;20032;-31
2023/09/02 01:55:34;;;;;;;15.65;6.00;;;;;;;21.66;67.22;100361.56;5087207;28;20047;-29
2023/09/02 01:58:01;;;;;;;16.83;7.85;;;;;;;21.86;65.72;100348.84;5086674;28;20020;-30
2023/09/02 02:00:27;;;;;;;8.90;5.80;;;;;;;21.82;65.92;100345.09;5087242;28;20730;-29
2023/09/02 02:02:55;;;;;;;10.27;5.97;;;;;;;21.93;65.04;100352.06;5087094;28;20055;-30
2023/09/02 02:05:36;;;;;;;11.55;5.78;;;;;;;22.08;64.52;100368.16;5087319;28;20032;-29
2023/09/02 02:08:27;;;;;;;14.18;7.28;;;;;;;21.77;67.02;100350.59;5087177;28;20034;-30
2023/09/02 02:11:20;;;;;;;12.18;7.10;;;;;;;21.88;65.54;100360.25;5084195;28;20089;-31
2023/09/02 02:13:49;;;;;;;16.58;7.57;;;;;;;22.07;65.72;100360.34;5085782;28;20032;-31
2023/09/02 02:16:33;;;;;;;14.95;6.90;;;;;;;21.98;66.05;100351.19;5086901;28;20024;-29
2023/09/02 02:18:59;;;;;;;21.38;7.85;;;;;;;21.71;66.66;100357.16;5086724;28;20074;-30
2023/09/02 02:21:38;;;;;;;11.85;6.65;;;;;;;21.63;65.25;100347.75;5086960;28;20110;-29
2023/09/02 02:24:04;;;;;;;13.25;6.72;;;;;;;21.83;64.26;100352.97;5087054;28;20036;-30
2023/09/02 02:26:29;;;;;;;15.38;6.70;;;;;;;21.54;66.64;100358.41;5097711;28;20031;-29
2023/09/02 02:28:54;;;;;;;12.00;6.13;;;;;;;21.47;68.38;100352.47;5086176;28;20031;-31
2023/09/02 02:31:20;;;;;;;16.35;8.07;;;;;;;21.66;67.25;100347.97;5085838;28;20035;-28
2023/09/02 02:33:45;;;;;;;18.27;8.65;;;;;;;21.62;68.19;100349.66;5086573;28;20055;-30
2023/09/02 02:36:39;;;;;;;19.13;9.10;;;;;;;21.67;68.61;100359.63;5086375;28;20016;-29
2023/09/02 02:39:04;;;;;;;16.13;9.05;;;;;;;21.64;66.71;100343.94;5086086;28;20024;-29
2023/09/02 02:41:31;;;;;;;19.30;8.88;;;;;;;21.75;67.37;100348.16;5086348;28;20038;-29
2023/09/02 02:43:56;;;;;;;17.75;8.60;;;;;;;21.63;67.38;100340.41;5088677;28;20035;-29
2023/09/02 02:46:22;;;;;;;17.30;7.45;;;;;;;21.49;68.68;100339.44;5097713;28;20030;-29
2023/09/02 02:48:47;;;;;;;12.10;6.40;;;;;;;21.55;69.04;100330.16;5093218;28;20473;-29
2023/09/02 02:51:13;;;;;;;10.98;6.13;;;;;;;21.65;69.12;100348.25;5086065;28;20087;-31
2023/09/02 02:53:38;;;;;;;10.93;6.03;;;;;;;21.81;68.33;100340.78;5086251;28;20044;-29
2023/09/02 02:56:04;;;;;;;8.50;5.53;;;;;;;22.04;67.10;100334.53;5085889;28;20020;-29
2023/09/02 02:58:32;;;;;;;9.27;6.35;;;;;;;21.86;67.72;100335.28;5086049;28;20441;-31
2023/09/02 03:01:05;;;;;;;8.55;5.85;;;;;;;21.93;68.00;100343.91;5086237;28;20035;-30
2023/09/02 03:03:31;;;;;;;8.38;5.47;;;;;;;21.83;67.59;100338.59;5085952;28;20811;-30
2023/09/02 03:05:57;;;;;;;8.80;4.97;;;;;;;21.82;68.27;100347.81;5086046;28;20123;-29
2023/09/02 03:08:46;;;;;;;9.23;5.22;;;;;;;21.95;68.01;100347.16;5086082;28;20090;-30
2023/09/02 03:11:12;;;;;;;11.05;5.50;;;;;;;21.84;67.20;100362.75;5082257;28;20032;-31
2023/09/02 03:13:37;;;;;;;8.35;5.35;;;;;;;21.76;66.25;100359.81;5085817;28;20397;-30
2023/09/02 03:16:04;;;;;;;7.63;4.72;;;;;;;21.72;66.15;100356.88;5085608;28;20511;-30
2023/09/02 03:18:51;;;;;;;8.88;5.20;;;;;;;21.54;67.09;100366.53;5085530;28;20024;-29
2023/09/02 03:21:16;;;;;;;86.38;40.50;;;;;;;21.12;70.00;100373.34;5085388;28;20036;-31
2023/09/02 03:23:42;;;;;;;22.38;10.40;;;;;;;20.95;70.84;100368.31;5085634;28;20097;-32
2023/09/02 03:26:11;;;;;;;11.25;7.20;;;;;;;21.09;71.00;100368.50;5097559;28;20027;-30
2023/09/02 03:28:37;;;;;;;11.27;7.22;;;;;;;21.17;70.61;100365.19;5085592;28;20539;-31
2023/09/02 03:31:10;;;;;;;13.93;6.20;;;;;;;21.38;68.33;100365.03;5085517;28;20024;-29
2023/09/02 03:33:36;;;;;;;10.65;6.25;;;;;;;21.22;70.51;100365.13;5085317;28;20028;-29
2023/09/02 03:36:03;;;;;;;14.90;5.97;;;;;;;21.31;70.00;100365.34;5085405;28;20088;-29
2023/09/02 03:38:29;;;;;;;8.47;6.00;;;;;;;21.40;69.72;100376.41;5084985;28;20028;-29
2023/09/02 03:40:54;;;;;;;9.90;6.60;;;;;;;21.42;70.14;100363.38;5085609;28;20024;-29
2023/09/02 03:43:20;;;;;;;10.05;6.63;;;;;;;21.27;69.02;100381.38;5096937;28;20016;-31
2023/09/02 03:45:48;;;;;;;11.88;6.43;;;;;;;21.24;68.10;100375.69;5094682;28;20032;-29
2023/09/02 03:48:18;;;;;;;13.02;6.15;;;;;;;21.19;69.35;100375.75;5084488;28;20115;-32
2023/09/02 03:51:05;;;;;;;12.20;6.70;;;;;;;20.90;69.42;100370.22;5085392;28;20044;-28
2023/09/02 03:53:33;;;;;;;17.67;6.78;;;;;;;21.38;70.36;100384.00;5085157;28;20975;-29
2023/09/02 03:55:59;;;;;;;10.23;5.53;;;;;;;21.83;67.67;100382.81;5085309;28;20039;-31
2023/09/02 03:58:30;;;;;;;12.50;5.80;;;;;;;22.25;65.95;100384.06;5085217;28;20024;-32
2023/09/02 04:00:56;;;;;;;14.20;5.82;;;;;;;22.04;66.14;100380.72;5085209;28;20072;-29
2023/09/02 04:03:22;;;;;;;12.18;5.50;;;;;;;22.16;66.37;100387.66;5084855;28;20020;-30
2023/09/02 04:06:03;;;;;;;12.20;6.43;;;;;;;22.07;64.46;100393.72;5085430;28;20077;-32
2023/09/02 04:08:33;;;;;;;11.48;6.20;;;;;;;21.82;66.96;100377.69;5085405;28;20024;-34
2023/09/02 04:11:04;;;;;;;12.95;6.38;;;;;;;22.03;65.87;100391.88;5079041;28;20051;-31
2023/09/02 04:13:30;;;;;;;13.35;6.30;;;;;;;21.96;68.27;100392.19;5084942;28;20114;-32
2023/09/02 04:16:14;;;;;;;13.23;6.53;;;;;;;21.67;67.90;100379.44;5085319;28;20117;-35
2023/09/02 04:19:08;;;;;;;14.52;7.63;;;;;;;21.66;69.31;100388.69;5085405;28;20032;-31
2023/09/02 04:21:33;;;;;;;17.55;8.52;;;;;;;21.63;69.39;100383.81;5085113;28;20129;-33
2023/09/02 04:24:08;;;;;;;20.23;9.20;;;;;;;21.45;70.48;100393.50;5085428;28;20598;-31
2023/09/02 04:27:01;;;;;;;17.60;9.20;;;;;;;21.24;71.38;100392.78;5096297;28;20027;-31
2023/09/02 04:29:55;;;;;;;14.55;8.18;;;;;;;21.32;70.79;100398.72;5082503;28;20036;-32
2023/09/02 04:32:21;;;;;;;16.20;7.97;;;;;;;21.34;71.42;100393.81;5082370;28;20044;-31
2023/09/02 04:34:58;;;;;;;13.25;7.32;;;;;;;21.50;70.69;100395.34;5085288;28;20024;-29
2023/09/02 04:37:24;;;;;;;14.52;7.13;;;;;;;21.71;69.42;100397.88;5084606;28;20484;-29
2023/09/02 04:39:58;;;;;;;9.50;6.80;;;;;;;21.60;70.04;100386.31;5089228;28;20039;-31
2023/09/02 04:42:24;;;;;;;11.88;6.45;;;;;;;21.65;68.92;100389.78;5098687;28;20100;-30
2023/09/02 04:45:02;;;;;;;13.07;6.97;;;;;;;21.87;69.39;100396.66;5084938;28;20036;-30
2023/09/02 04:47:27;;;;;;;11.57;6.82;;;;;;;21.93;68.56;100398.22;5084675;28;20032;-29
2023/09/02 04:50:05;;;;;;;9.05;5.88;;;;;;;21.96;68.07;100397.63;5084470;28;20048;-32
2023/09/02 04:52:30;;;;;;;;;;;;;;;22.19;67.34;100403.38;5085929;28;20035;-30
2023/09/02 04:55:07;;;;;;;14.10;7.75;;;;;;;22.04;66.22;100402.44;5088358;28;19904;-31
2023/09/02 04:57:41;;;;;;;9.65;6.00;;;;;;;22.12;65.28;100401.00;5088403;28;20173;-29
2023/09/02 05:00:07;;;;;;;11.93;6.20;;;;;;;22.23;64.41;100407.13;5088457;28;20032;-30
2023/09/02 05:03:00;;;;;;;12.25;6.15;;;;;;;22.42;63.69;100399.88;5088197;28;20036;-30
2023/09/02 05:05:27;;;;;;;7.47;5.40;;;;;;;22.40;64.07;100404.81;5088221;28;20123;-31
2023/09/02 05:08:02;;;;;;;7.95;5.15;;;;;;;22.10;64.06;100405.13;5087549;28;20058;-30
2023/09/02 05:10:28;;;;;;;11.05;6.35;;;;;;;21.95;65.82;100390.59;5088079;28;20028;-30
2023/09/02 05:12:53;;;;;;;11.00;5.60;;;;;;;22.35;65.09;100404.88;5088046;28;20089;-32
2023/09/02 05:15:19;;;;;;;9.32;5.78;;;;;;;22.60;63.00;100402.97;5087927;28;20028;-32
2023/09/02 05:17:44;;;;;;;12.77;6.22;;;;;;;22.84;61.08;100406.44;5087790;28;20237;-30
2023/09/02 05:20:34;;;;;;;12.95;6.68;;;;;;;22.60;62.31;100411.09;5088140;28;20077;-30
2023/09/02 05:22:59;;;;;;;9.38;6.60;;;;;;;22.46;63.71;100406.38;5087520;28;20024;-29
2023/09/02 05:25:34;;;;;;;10.65;6.78;;;;;;;22.56;64.18;100399.19;5087782;28;20421;-30
2023/09/02 05:27:59;;;;;;;8.65;5.40;;;;;;;22.82;62.00;100408.66;5088144;28;20028;-31
2023/09/02 05:30:37;;;;;;;9.32;5.05;;;;;;;23.03;61.18;100405.69;5087561;28;20020;-32
2023/09/02 05:33:03;;;;;;;12.07;5.50;;;;;;;23.11;60.18;100407.72;5087339;28;20024;-32
2023/09/02 05:35:37;;;;;;;7.85;5.07;;;;;;;23.30;61.09;100413.16;5097977;28;20036;-31
2023/09/02 05:38:04;;;;;;;7.97;5.10;;;;;;;23.19;61.70;100412.50;5107847;28;20587;-30
2023/09/02 05:40:30;;;;;;;7.40;4.90;;;;;;;23.45;59.79;100410.19;5108034;28;20027;-30
2023/09/02 05:42:55;;;;;;;9.60;5.40;;;;;;;23.64;59.25;100407.44;5108047;28;20030;-30
2023/09/02 05:45:20;;;;;;;11.82;5.60;;;;;;;23.63;60.17;100413.19;5107584;27;20028;-30
2023/09/02 05:48:09;;;;;;;10.70;5.45;;;;;;;23.72;59.20;100414.13;5107746;28;20042;-30
2023/09/02 05:50:34;;;;;;;8.45;4.70;;;;;;;23.86;58.52;100414.16;5101684;28;20044;-29
2023/09/02 05:53:35;;;;;;;5.05;3.70;;;;;;;24.08;55.81;100421.69;5107694;28;20038;-30
2023/09/02 05:56:27;;;;;;;8.52;4.97;;;;;;;24.16;57.79;100422.91;5063933;28;20103;-29
2023/09/02 05:59:23;;;;;;;7.35;3.70;;;;;;;24.16;52.23;100412.00;5103245;28;20084;-32
2023/09/02 06:01:49;;;;;;;8.40;4.43;;;;;;;24.52;53.32;100420.31;5107412;28;20034;-30
2023/09/02 06:04:24;;;;;;;5.13;3.95;;;;;;;24.67;53.06;100428.19;5107791;28;20043;-30
2023/09/02 06:06:49;;;;;;;5.15;3.53;;;;;;;24.76;51.80;100427.47;5107311;28;20554;-30
2023/09/02 06:09:35;;;;;;;6.00;3.75;;;;;;;25.17;49.54;100435.56;5107235;28;20024;-30
2023/09/02 06:12:26;;;;;;;5.45;3.35;;;;;;;25.15;47.90;100432.34;5106929;28;20036;-31
2023/09/02 06:14:52;;;;;;;6.32;3.78;;;;;;;25.32;48.13;100439.91;5107043;28;20031;-31
2023/09/02 06:17:31;;;;;;;5.10;3.60;;;;;;;25.38;48.65;100440.59;5107106;28;20022;-31
2023/09/02 06:20:43;;;;;;;7.40;3.25;;;;;;;25.45;50.20;100451.88;5106993;28;20042;-28
2023/09/02 06:23:33;;;;;;;5.13;3.13;;;;;;;25.90;47.73;100440.16;5106758;28;20119;-30
2023/09/02 06:26:00;;;;;;;5.45;3.25;;;;;;;25.74;47.49;100442.44;5106811;28;20088;-30
2023/09/02 06:28:35;;;;;;;4.90;2.90;;;;;;;25.70;47.57;100438.72;5106762;27;20127;-29
2023/09/02 06:31:42;;;;;;;5.20;3.30;;;;;;;25.86;47.03;100448.13;5106777;28;20082;-30
2023/09/02 06:34:34;;;;;;;5.53;3.30;;;;;;;26.14;46.07;100450.75;5083582;28;20654;-29
2023/09/02 06:37:00;;;;;;;6.25;3.17;;;;;;;26.21;46.21;100440.94;5074417;28;20036;-30
2023/09/02 06:39:37;;;;;;;3.95;2.88;;;;;;;26.51;44.90;100459.56;5098038;28;20376;-32
2023/09/02 06:42:03;;;;;;;;;;;;;;;26.71;44.25;100453.56;5107212;28;20024;-31
2023/09/02 06:44:40;;;;;;;5.20;3.00;;;;;;;26.59;44.40;100440.47;5106593;28;19922;-29
2023/09/02 06:47:08;;;;;;;7.82;3.25;;;;;;;26.71;43.62;100442.59;5105145;28;20095;-29
2023/09/02 06:49:39;;;;;;;5.28;2.88;;;;;;;26.95;44.42;100455.03;5106492;28;20062;-29
2023/09/02 06:52:04;;;;;;;3.75;2.83;;;;;;;26.98;43.80;100448.94;5106669;28;20036;-29
2023/09/02 06:54:48;;;;;;;4.82;2.95;;;;;;;27.33;42.91;100459.94;5106744;27;20049;-29
2023/09/02 06:57:43;;;;;;;4.63;3.15;;;;;;;27.64;42.71;100446.88;5106338;28;20035;-30
2023/09/02 07:00:11;;;;;;;6.20;3.25;;;;;;;27.28;43.37;100449.13;5090313;28;20524;-32
2023/09/02 07:02:47;;;;;;;8.57;3.33;;;;;;;27.15;42.44;100446.19;5106282;28;20035;-32
2023/09/02 07:05:13;;;;;;;5.30;3.60;;;;;;;27.45;41.65;100449.16;5106288;28;20042;-33
2023/09/02 07:07:47;;;;;;;5.00;3.22;;;;;;;27.68;41.16;100451.69;5106257;28;20016;-30
2023/09/02 07:10:12;;;;;;;5.28;3.13;;;;;;;27.78;41.09;100456.84;5106503;28;20054;-29
2023/09/02 07:12:52;;;;;;;6.32;3.10;;;;;;;27.91;41.48;100450.41;5106135;28;20687;-32
2023/09/02 07:15:17;;;;;;;7.53;3.35;;;;;;;27.84;39.34;100456.34;5105701;28;20119;-30
2023/09/02 07:17:49;;;;;;;5.28;3.00;;;;;;;27.91;39.82;100463.28;5106280;28;20031;-29
2023/09/02 07:20:16;;;;;;;5.28;3.17;;;;;;;28.37;39.76;100458.94;5106335;28;20020;-31
2023/09/02 07:22:52;;;;;;;4.85;3.20;;;;;;;28.35;38.99;100453.00;5106068;28;20514;-33
2023/09/02 07:25:18;;;;;;;6.25;3.30;;;;;;;28.33;38.11;100467.03;5105731;28;20122;-31
2023/09/02 07:27:52;;;;;;;5.85;3.10;;;;;;;28.40;38.59;100456.34;5105974;28;20106;-31
2023/09/02 07:30:17;;;;;;;8.05;4.43;;;;;;;28.80;38.50;100456.00;5105833;28;20022;-31
2023/09/02 07:32:55;;;;;;;5.15;3.17;;;;;;;28.63;37.91;100456.91;5105888;28;20016;-30
2023/09/02 07:35:21;;;;;;;5.90;3.33;;;;;;;28.89;37.47;100463.38;5105748;28;20111;-30
2023/09/02 07:37:55;;;;;;;5.28;3.35;;;;;;;28.88;37.31;100459.81;5105417;28;20138;-30
2023/09/02 07:40:21;;;;;;;6.15;3.20;;;;;;;29.25;37.27;100471.84;5105756;28;20118;-30
2023/09/02 07:43:02;;;;;;;7.35;3.47;;;;;;;29.06;37.30;100460.53;5105692;28;20122;-30
2023/09/02 07:48:12;;;;;;;5.32;3.00;;;;;;;29.33;36.80;100452.91;5106392;28;20424;-30
2023/09/02 07:51:00;;;;;;;5.10;2.88;;;;;;;29.34;36.52;100457.25;5105421;28;20044;-29
2023/09/02 07:53:26;;;;;;;5.00;2.80;;;;;;;29.42;35.72;100459.13;5098604;28;20366;-30
2023/09/02 07:56:09;;;;;;;4.28;3.05;;;;;;;29.97;35.38;100462.66;5105441;28;20527;-29
2023/09/02 07:59:05;;;;;;;6.05;3.17;;;;;;;29.70;36.08;100461.31;5105586;28;20111;-29
2023/09/02 08:01:31;;;;;;;6.32;2.95;;;;;;;29.90;34.38;100460.47;5067491;28;20052;-31
2023/09/02 08:04:06;;;;;;;4.85;3.00;;;;;;;30.09;33.99;100453.63;5105117;28;20036;-30
2023/09/02 08:06:31;;;;;;;5.78;3.08;;;;;;;29.89;34.98;100460.81;5105629;28;20019;-31
2023/09/02 08:09:06;;;;;;;5.40;2.90;;;;;;;29.95;34.40;100454.75;5105517;28;20080;-32
2023/09/02 08:11:31;;;;;;;6.05;3.05;;;;;;;30.09;35.28;100456.38;5105477;28;20104;-30
2023/09/02 08:13:57;;;;;;;6.13;3.05;;;;;;;29.76;35.56;100459.97;5105313;28;20028;-33
2023/09/02 08:16:22;;;;;;;4.05;2.80;;;;;;;29.97;33.88;100452.44;5105102;28;20110;-30
2023/09/02 08:18:57;;;;;;;5.35;2.70;;;;;;;30.14;33.31;100456.16;5105624;28;20035;-32
2023/09/02 08:21:22;;;;;;;4.75;2.92;;;;;;;30.18;34.89;100459.81;5105425;28;20043;-30
2023/09/02 08:24:08;;;;;;;5.88;2.90;;;;;;;30.53;34.11;100465.75;5105162;28;20043;-32
2023/09/02 08:27:01;;;;;;;6.38;3.05;;;;;;;30.83;33.58;100458.03;5104694;28;20526;-30
2023/09/02 08:29:26;;;;;;;6.45;2.95;;;;;;;30.91;32.35;100463.78;5108446;28;20567;-31
2023/09/02 08:32:04;;;;;;;6.60;3.92;;;;;;;31.06;31.75;100460.31;5109386;28;20119;-31
2023/09/02 08:34:29;;;;;;;3.88;2.60;;;;;;;31.08;33.04;100459.94;5109179;28;20024;-30
2023/09/02 08:37:04;;;;;;;4.93;3.22;;;;;;;31.12;32.61;100452.59;5109366;28;20024;-33
2023/09/02 08:39:29;;;;;;;4.60;2.60;;;;;;;31.01;32.99;100461.34;5108678;28;20036;-30
2023/09/02 08:42:16;;;;;;;4.95;2.42;;;;;;;31.17;31.30;100446.84;5109242;27;20069;-31
2023/09/02 08:45:11;;;;;;;3.33;2.30;;;;;;;31.29;32.04;100451.53;5109106;28;20515;-30
2023/09/02 08:48:11;;;;;;;6.07;2.88;;;;;;;31.28;31.73;100455.41;5108717;28;20023;-30
2023/09/02 08:50:55;;;;;;;;;;;;;;;;;;;;;
2023/09/02 08:53:23;;;;;;;5.68;2.50;;;;;;;31.06;31.67;100446.53;5102196;28;20039;-30
2023/09/02 08:56:10;;;;;;;;;;;;;;;31.07;31.19;100467.41;5109396;28;20119;-30
2023/09/02 08:58:39;;;;;;;4.10;2.20;;;;;;;30.70;31.34;100464.69;5108724;28;19915;-31
2023/09/02 09:01:16;;;;;;;3.40;2.22;;;;;;;31.26;31.15;100457.72;5108562;28;20038;-29
2023/09/02 09:04:19;;;;;;;4.45;2.53;;;;;;;31.46;31.28;100455.97;5108782;28;20065;-30
2023/09/02 09:07:16;;;;;;;3.58;2.40;;;;;;;31.86;29.29;100464.16;5108583;28;20035;-32
2023/09/02 09:12:35;;;;;;;4.18;2.55;;;;;;;32.10;29.20;100440.34;5108687;28;20077;-33
2023/09/02 09:15:27;;;;;;;3.78;2.28;;;;;;;31.92;30.16;100446.19;5108681;28;20165;-30
2023/09/02 09:18:18;;;;;;;19.27;3.22;;;;;;;31.85;29.23;100445.97;5106563;28;20038;-29
2023/09/02 09:21:18;;;;;;;7.07;2.40;;;;;;;31.90;30.58;100440.22;5108259;28;20035;-30
2023/09/02 09:23:44;;;;;;;6.15;2.35;;;;;;;31.50;29.25;100445.84;5107359;28;20544;-30
2023/09/02 09:26:19;;;;;;;4.90;2.78;;;;;;;31.67;30.05;100439.19;5108017;28;20019;-29
2023/09/02 09:29:03;;;;;;;5.28;2.67;;;;;;;31.84;29.55;100438.88;5108218;28;20088;-29
2023/09/02 09:31:30;;;;;;;3.65;2.60;;;;;;;32.20;28.92;100434.28;5107901;28;20031;-34
2023/09/02 09:34:34;;;;;;;3.80;2.25;;;;;;;32.14;28.17;100431.00;5108048;28;20043;-32
2023/09/02 09:37:22;;;;;;;4.35;2.50;;;;;;;32.55;29.10;100419.75;5106423;28;20521;-31
2023/09/02 09:39:51;;;;;;;4.50;2.53;;;;;;;32.65;28.58;100416.44;5106053;28;20126;-33
2023/09/02 09:42:17;;;;;;;5.65;2.67;;;;;;;32.69;28.25;100422.03;5099987;27;20046;-33
2023/09/02 09:45:45;;;;;;;4.40;2.70;;;;;;;32.68;27.49;100420.47;5107759;28;20039;-30
2023/09/02 09:48:10;;;;;;;4.43;2.53;;;;;;;33.18;27.26;100424.28;5104606;28;20508;-32
2023/09/02 09:50:38;;;;;;;6.20;2.75;;;;;;;33.41;26.63;100418.84;5107252;27;20057;-29
2023/09/02 09:53:47;;;;;;;5.13;2.60;;;;;;;33.47;27.34;100413.78;5107598;28;20415;-31
2023/09/02 09:56:42;;;;;;;5.07;2.58;;;;;;;33.07;27.53;100413.00;5087074;28;20028;-29
2023/09/02 09:59:35;;;;;;;4.78;2.60;;;;;;;33.18;27.94;100419.59;5069258;28;20143;-31
2023/09/02 10:02:29;;;;;;;5.47;2.72;;;;;;;33.51;27.23;100418.25;5107019;28;20031;-30
2023/09/02 10:07:58;;;;;;;5.55;2.50;;;;;;;34.09;26.74;100406.25;5107056;28;20601;-32
2023/09/02 10:10:41;;;;;;;4.30;2.70;;;;;;;33.83;25.94;100407.78;5106652;28;20036;-32
2023/09/02 10:13:35;;;;;;;6.07;2.55;;;;;;;33.93;26.09;100411.09;5107226;28;20023;-32
2023/09/02 10:16:01;;;;;;;5.25;2.72;;;;;;;33.90;25.67;100415.41;5102129;28;20539;-30
2023/09/02 10:18:35;;;;;;;4.93;2.70;;;;;;;34.15;25.43;100401.22;5107322;28;20019;-30
2023/09/02 10:21:02;;;;;;;5.75;2.60;;;;;;;34.03;26.33;100396.66;5107082;28;20028;-30
2023/09/02 10:23:40;;;;;;;5.38;2.95;;;;;;;34.35;25.12;100407.47;5106831;28;20065;-30
2023/09/02 10:26:38;;;;;;;4.85;2.85;;;;;;;34.49;26.08;100406.84;5106953;28;20101;-32
2023/09/02 10:29:10;;;;;;;3.58;2.55;;;;;;;34.56;25.69;100404.22;5105365;28;20046;-30
2023/09/02 10:31:48;;;;;;;4.10;2.53;;;;;;;33.93;25.68;100398.06;5106911;28;20046;-31
2023/09/02 10:34:44;;;;;;;6.47;2.92;;;;;;;33.95;25.89;100404.03;5106548;28;20071;-32
2023/09/02 10:38:02;;;;;;;5.13;2.80;;;;;;;33.99;24.98;100398.56;5106963;28;20062;-32
2023/09/02 10:40:50;;;;;;;7.32;3.28;;;;;;;34.32;24.46;100399.91;5082969;28;20123;-30
2023/09/02 10:43:48;;;;;;;3.88;2.33;;;;;;;34.35;24.90;100399.97;5106859;27;20027;-31
2023/09/02 10:46:52;;;;;;;4.60;2.58;;;;;;;33.59;26.05;100397.84;5082593;28;20116;-31
2023/09/02 10:49:47;;;;;;;5.03;2.70;;;;;;;33.68;26.02;100388.56;5070907;28;20827;-34
2023/09/02 10:52:52;;;;;;;4.53;2.90;;;;;;;34.14;24.88;100388.53;5067820;28;20572;-32
2023/09/02 10:55:56;;;;;;;5.50;2.60;;;;;;;34.45;25.34;100381.91;5103590;28;20035;-30
2023/09/02 10:58:51;;;;;;;3.60;2.35;;;;;;;34.02;24.76;100392.28;5104671;28;20039;-29
2023/09/02 11:01:29;;;;;;;;;;;;;;;;;;;;;
2023/09/02 11:03:55;;;;;;;4.35;2.70;;;;;;;33.68;25.74;100385.78;5094041;28;20052;-31
2023/09/02 11:07:12;;;;;;;4.15;2.78;;;;;;;34.35;25.96;100385.31;5106274;28;20034;-31
2023/09/02 11:09:56;;;;;;;5.72;2.33;;;;;;;34.17;24.47;100390.59;5087586;28;20046;-30
2023/09/02 11:12:59;;;;;;;5.03;2.95;;;;;;;34.01;25.52;100380.41;5106364;28;20022;-32
2023/09/02 11:16:13;;;;;;;5.60;3.13;;;;;;;34.98;24.84;100378.25;5105705;28;20031;-30
2023/09/02 11:19:08;;;;;;;4.90;3.00;;;;;;;34.51;24.99;100369.34;5106147;28;20042;-32
2023/09/02 11:21:57;;;;;;;4.97;2.97;;;;;;;34.33;24.61;100366.31;5104727;28;20500;-29
2023/09/02 11:24:25;;;;;;;4.72;2.90;;;;;;;33.69;25.33;100363.28;5105871;28;20123;-30
2023/09/02 11:26:59;;;;;;;5.68;3.30;;;;;;;33.61;26.22;100356.84;5105904;28;20563;-29
2023/09/02 11:30:09;;;;;;;4.85;2.80;;;;;;;33.66;26.02;100357.72;5105636;28;20028;-32
2023/09/02 11:33:03;;;;;;;5.97;2.97;;;;;;;34.43;24.70;100353.81;5103614;28;20104;-30
2023/09/02 11:36:06;;;;;;;4.10;2.90;;;;;;;34.28;24.56;100347.25;5105973;28;20077;-29
2023/09/02 11:38:33;;;;;;;4.53;3.25;;;;;;;35.06;24.27;100354.19;5105580;28;20024;-30
2023/09/02 11:41:07;;;;;;;4.80;2.75;;;;;;;35.48;24.13;100353.88;5105716;28;20028;-31
2023/09/02 11:43:43;;;;;;;;;;;;;;;;;;;;;
2023/09/02 11:46:12;;;;;;;6.68;3.10;;;;;;;35.32;22.85;100353.31;5093578;28;20044;-31
2023/09/02 11:49:12;;;;;;;4.53;3.15;;;;;;;36.08;22.85;100340.91;5105729;28;20476;-32
2023/09/02 11:52:13;;;;;;;5.18;3.30;;;;;;;35.68;22.53;100350.94;5105161;28;20055;-30
2023/09/02 11:55:12;;;;;;;4.68;2.90;;;;;;;35.96;21.94;100337.28;5102564;28;20096;-31
2023/09/02 11:57:38;;;;;;;4.65;3.10;;;;;;;36.05;21.90;100333.38;5105623;28;20046;-30
2023/09/02 12:00:18;;;;;;;4.68;3.22;;;;;;;35.18;23.77;100324.25;5105565;28;20035;-32
2023/09/02 12:03:32;;;;;;;4.68;3.10;;;;;;;35.60;23.15;100339.72;5107740;28;20028;-29
2023/09/02 12:06:12;;;;;;;4.55;3.08;;;;;;;35.06;23.27;100326.47;5066088;28;20060;-32
2023/09/02 12:08:38;;;;;;;5.13;3.30;;;;;;;34.52;23.89;100314.75;5066039;28;20119;-32
2023/09/02 12:11:24;;;;;;;5.35;3.38;;;;;;;34.49;23.88;100321.03;5093374;27;20405;-31
2023/09/02 12:14:22;;;;;;;4.82;3.45;;;;;;;34.36;24.42;100318.47;5109703;28;20067;-31
2023/09/02 12:17:16;;;;;;;6.47;2.95;;;;;;;34.39;24.65;100317.75;5085847;28;20047;-30